createdAt,value
2023-03-20T00:02:24.533Z,13.91
2023-03-20T00:04:51.880Z,14.18
2023-03-20T00:07:19.007Z,14.25
2023-03-20T00:09:46.182Z,14.24
2023-03-20T00:12:25.123Z,14.05
2023-03-20T00:14:52.386Z,14.32
2023-03-20T00:17:21.472Z,14.35
2023-03-20T00:19:51.352Z,14.32
2023-03-20T00:22:18.416Z,14.33
2023-03-20T00:24:46.035Z,14.32
2023-03-20T00:27:17.627Z,14.26
2023-03-20T00:29:44.889Z,14.24
2023-03-20T00:32:14.243Z,14.18
2023-03-20T00:34:41.782Z,14.16
2023-03-20T00:37:11.679Z,14.07
2023-03-20T00:39:39.061Z,13.93
2023-03-20T00:42:13.362Z,13.90
2023-03-20T00:44:56.110Z,13.82
2023-03-20T00:47:24.514Z,13.49
2023-03-20T00:49:54.185Z,13.14
2023-03-20T00:52:22.488Z,12.87
2023-03-20T00:54:49.566Z,12.92
2023-03-20T00:57:37.853Z,12.97
2023-03-20T01:00:21.338Z,13.20
2023-03-20T01:02:48.949Z,13.29
2023-03-20T01:05:16.786Z,13.23
2023-03-20T01:07:45.459Z,13.27
2023-03-20T01:10:13.594Z,13.24
2023-03-20T01:12:43.075Z,13.25
2023-03-20T01:15:34.096Z,13.17
2023-03-20T01:18:01.365Z,13.17
2023-03-20T01:20:32.311Z,13.12
2023-03-20T01:22:59.499Z,13.03
2023-03-20T01:25:26.662Z,12.41
2023-03-20T01:27:54.981Z,12.54
2023-03-20T01:30:30.588Z,12.21
2023-03-20T01:32:59.908Z,12.53
2023-03-20T01:35:29.023Z,12.60
2023-03-20T01:37:56.382Z,12.48
2023-03-20T01:40:31.132Z,12.07
2023-03-20T01:42:58.561Z,12.32
2023-03-20T01:45:36.866Z,12.44
2023-03-20T01:48:17.798Z,12.45
2023-03-20T01:50:44.817Z,12.37
2023-03-20T01:53:25.284Z,12.33
2023-03-20T01:55:56.997Z,12.09
2023-03-20T01:58:41.652Z,11.61
2023-03-20T02:01:13.541Z,10.94
2023-03-20T02:03:49.880Z,10.56
2023-03-20T02:06:18.789Z,10.65
2023-03-20T02:08:50.986Z,10.51
2023-03-20T02:11:23.505Z,10.56
2023-03-20T02:13:55.490Z,11.32
2023-03-20T02:16:22.622Z,11.61
2023-03-20T02:18:52.824Z,11.81
2023-03-20T02:22:33.860Z,11.89
2023-03-20T02:25:57.559Z,12.07
2023-03-20T02:28:52.265Z,12.04
2023-03-20T02:31:57.899Z,11.55
2023-03-20T02:34:52.644Z,11.40
2023-03-20T02:37:48.015Z,11.82
2023-03-20T02:40:30.813Z,11.97
2023-03-20T02:43:29.961Z,11.91
2023-03-20T02:46:35.763Z,11.88
2023-03-20T02:49:15.540Z,12.03
2023-03-20T02:52:02.286Z,11.97
2023-03-20T02:54:49.410Z,12.12
2023-03-20T02:57:21.771Z,11.95
2023-03-20T03:00:33.447Z,11.79
2023-03-20T03:03:34.192Z,12.22
2023-03-20T03:06:34.442Z,12.22
2023-03-20T03:09:17.736Z,12.42
2023-03-20T03:11:54.147Z,12.22
2023-03-20T03:14:44.758Z,12.33
2023-03-20T03:17:15.297Z,12.49
2023-03-20T03:19:49.391Z,12.29
2023-03-20T03:22:17.911Z,12.37
2023-03-20T03:24:50.037Z,12.13
2023-03-20T03:27:40.987Z,12.01
2023-03-20T03:30:31.147Z,12.16
2023-03-20T03:33:28.232Z,11.94
2023-03-20T03:36:51.706Z,12.40
2023-03-20T03:39:31.070Z,12.17
2023-03-20T03:42:24.756Z,12.44
2023-03-20T03:45:17.219Z,12.71
2023-03-20T03:48:15.590Z,12.62
2023-03-20T03:50:53.176Z,12.73
2023-03-20T03:53:34.474Z,12.81
2023-03-20T03:56:12.245Z,12.84
2023-03-20T03:58:52.253Z,12.89
2023-03-20T04:01:22.742Z,12.89
2023-03-20T04:03:57.514Z,12.88
2023-03-20T04:06:27.267Z,12.79
2023-03-20T04:08:54.480Z,12.91
2023-03-20T04:11:29.041Z,12.58
2023-03-20T04:13:56.604Z,12.40
2023-03-20T04:16:25.770Z,12.25
2023-03-20T04:18:53.433Z,12.36
2023-03-20T04:21:20.450Z,12.55
2023-03-20T04:23:47.583Z,12.72
2023-03-20T04:26:14.779Z,12.78
2023-03-20T04:28:42.113Z,12.86
2023-03-20T04:31:09.272Z,12.62
2023-03-20T04:33:36.396Z,12.74
2023-03-20T04:36:03.915Z,12.76
2023-03-20T04:38:31.311Z,12.63
2023-03-20T04:41:01.354Z,12.79
2023-03-20T04:43:28.533Z,12.50
2023-03-20T04:45:56.341Z,12.71
2023-03-20T04:48:23.949Z,12.76
2023-03-20T04:50:51.293Z,12.56
2023-03-20T04:53:18.936Z,12.23
2023-03-20T04:55:46.162Z,12.42
2023-03-20T04:58:13.470Z,12.61
2023-03-20T05:00:40.776Z,12.66
2023-03-20T05:03:07.868Z,12.78
2023-03-20T05:05:38.056Z,12.01
2023-03-20T05:08:06.417Z,12.11
2023-03-20T05:10:33.777Z,12.10
2023-03-20T05:13:01.117Z,12.42
2023-03-20T05:15:28.455Z,12.45
2023-03-20T05:17:56.000Z,12.47
2023-03-20T05:20:23.096Z,12.20
2023-03-20T05:22:52.039Z,12.26
2023-03-20T05:25:22.454Z,12.35
2023-03-20T05:27:49.485Z,12.70
2023-03-20T05:30:17.037Z,12.78
2023-03-20T05:32:44.186Z,12.71
2023-03-20T05:35:12.412Z,12.73
2023-03-20T05:37:40.448Z,12.71
2023-03-20T05:40:11.101Z,12.38
2023-03-20T05:42:38.375Z,12.19
2023-03-20T05:45:09.981Z,12.42
2023-03-20T05:47:37.079Z,12.62
2023-03-20T05:50:05.650Z,12.83
2023-03-20T05:52:32.723Z,12.93
2023-03-20T05:54:59.850Z,13.00
2023-03-20T05:57:32.676Z,12.98
2023-03-20T06:00:03.079Z,13.05
2023-03-20T06:02:30.159Z,13.08
2023-03-20T06:04:57.204Z,13.00
2023-03-20T06:07:24.391Z,13.13
2023-03-20T06:09:51.972Z,13.23
2023-03-20T06:12:19.016Z,13.33
2023-03-20T06:14:46.091Z,13.32
2023-03-20T06:17:13.399Z,13.25
2023-03-20T06:19:41.255Z,13.16
2023-03-20T06:22:08.764Z,13.11
2023-03-20T06:24:36.008Z,13.12
2023-03-20T06:27:03.110Z,13.10
2023-03-20T06:29:30.332Z,13.26
2023-03-20T06:31:57.736Z,13.22
2023-03-20T06:34:24.788Z,12.03
2023-03-20T06:36:51.874Z,12.60
2023-03-20T06:39:19.010Z,12.74
2023-03-20T06:41:58.576Z,12.95
2023-03-20T06:44:26.951Z,12.59
2023-03-20T06:46:54.466Z,12.67
2023-03-20T06:49:24.364Z,12.20
2023-03-20T06:51:51.408Z,12.51
2023-03-20T06:54:18.458Z,12.73
2023-03-20T06:56:45.554Z,12.47
2023-03-20T06:59:12.784Z,12.51
2023-03-20T07:01:40.405Z,12.80
2023-03-20T07:04:08.590Z,12.96
2023-03-20T07:06:37.019Z,13.15
2023-03-20T07:09:05.371Z,13.03
2023-03-20T07:11:34.206Z,12.87
2023-03-20T07:14:01.914Z,13.05
2023-03-20T07:16:29.073Z,12.85
2023-03-20T07:18:56.115Z,12.51
2023-03-20T07:21:23.818Z,12.43
2023-03-20T07:23:50.953Z,12.85
2023-03-20T07:26:18.060Z,12.99
2023-03-20T07:28:47.889Z,12.83
2023-03-20T07:31:26.345Z,12.74
2023-03-20T07:33:53.662Z,11.80
2023-03-20T07:36:21.241Z,12.47
2023-03-20T07:38:48.488Z,12.22
2023-03-20T07:41:15.578Z,12.21
2023-03-20T07:43:44.723Z,11.39
2023-03-20T07:46:12.039Z,11.74
2023-03-20T07:48:39.137Z,12.38
2023-03-20T07:51:06.827Z,12.40
2023-03-20T07:53:33.896Z,12.32
2023-03-20T07:56:01.316Z,12.36
2023-03-20T07:58:28.336Z,12.17
2023-03-20T08:00:58.710Z,12.06
2023-03-20T08:03:26.036Z,12.04
2023-03-20T08:05:54.010Z,12.40
2023-03-20T08:08:21.704Z,12.04
2023-03-20T08:10:48.829Z,12.54
2023-03-20T08:13:16.382Z,13.09
2023-03-20T08:15:43.811Z,13.30
2023-03-20T08:18:12.117Z,13.38
2023-03-20T08:20:39.236Z,12.45
2023-03-20T08:23:06.404Z,13.34
2023-03-20T08:25:34.146Z,12.93
2023-03-20T08:28:01.898Z,12.70
2023-03-20T08:30:31.437Z,13.14
2023-03-20T08:32:59.089Z,13.01
2023-03-20T08:35:33.346Z,13.07
2023-03-20T08:38:01.884Z,12.86
2023-03-20T08:40:32.221Z,12.43
2023-03-20T08:42:59.609Z,13.37
2023-03-20T08:45:26.735Z,13.80
2023-03-20T08:47:54.955Z,13.81
2023-03-20T08:50:22.525Z,14.30
2023-03-20T08:52:49.612Z,14.36
2023-03-20T08:55:17.706Z,14.52
2023-03-20T08:57:44.808Z,14.83
2023-03-20T09:00:15.933Z,15.15
2023-03-20T09:02:43.856Z,15.09
2023-03-20T09:05:11.907Z,14.91
2023-03-20T09:07:39.299Z,15.67
2023-03-20T09:10:07.604Z,16.03
2023-03-20T09:12:38.023Z,16.03
2023-03-20T09:15:10.083Z,16.04
2023-03-20T09:17:37.163Z,16.01
2023-03-20T09:20:05.381Z,15.71
2023-03-20T09:22:33.815Z,15.21
2023-03-20T09:25:00.958Z,16.08
2023-03-20T09:27:28.402Z,15.80
2023-03-20T09:29:55.581Z,16.05
2023-03-20T09:32:22.652Z,16.18
2023-03-20T09:34:49.815Z,15.59
2023-03-20T09:37:16.892Z,16.23
2023-03-20T09:39:44.338Z,15.93
2023-03-20T09:42:57.234Z,16.10
2023-03-20T09:46:08.511Z,15.78
2023-03-20T09:49:19.299Z,16.13
2023-03-20T09:52:01.450Z,15.57
2023-03-20T09:54:54.067Z,15.86
2023-03-20T09:57:32.352Z,15.70
2023-03-20T10:00:10.373Z,15.20
2023-03-20T10:03:15.465Z,15.44
2023-03-20T10:05:56.076Z,15.55
2023-03-20T10:08:39.159Z,15.35
2023-03-20T10:12:01.070Z,15.56
2023-03-20T10:15:08.103Z,15.05
2023-03-20T10:18:27.767Z,15.03
2023-03-20T10:21:44.786Z,15.20
2023-03-20T10:24:36.260Z,15.55
2023-03-20T10:27:28.367Z,15.19
2023-03-20T10:30:19.243Z,15.46
2023-03-20T10:33:32.551Z,16.03
2023-03-20T10:36:36.153Z,15.81
2023-03-20T10:39:51.791Z,15.33
2023-03-20T10:42:28.878Z,15.52
2023-03-20T10:45:05.660Z,15.20
2023-03-20T10:47:39.680Z,15.67
2023-03-20T10:50:17.841Z,15.44
2023-03-20T10:52:52.130Z,15.73
2023-03-20T10:55:28.236Z,15.67
2023-03-20T10:58:22.831Z,15.53
2023-03-20T11:00:51.397Z,15.39
2023-03-20T11:03:30.500Z,15.76
2023-03-20T11:06:16.066Z,15.67
2023-03-20T11:08:51.303Z,15.70
2023-03-20T11:11:34.167Z,15.19
2023-03-20T11:14:21.416Z,16.28
2023-03-20T11:16:55.979Z,16.39
2023-03-20T11:19:24.950Z,15.19
2023-03-20T11:21:57.255Z,16.61
2023-03-20T11:24:47.297Z,16.28
2023-03-20T11:27:28.566Z,15.93
2023-03-20T11:29:57.603Z,15.75
2023-03-20T11:32:41.936Z,15.75
2023-03-20T11:35:31.593Z,15.32
2023-03-20T11:38:21.609Z,16.25
2023-03-20T11:40:54.580Z,16.01
2023-03-20T11:43:28.759Z,15.47
2023-03-20T11:46:00.790Z,15.98
2023-03-20T11:48:45.841Z,15.09
2023-03-20T11:51:21.438Z,14.91
2023-03-20T11:53:48.425Z,15.44
2023-03-20T11:56:29.218Z,15.93
2023-03-20T11:59:18.526Z,16.17
2023-03-20T12:01:52.391Z,15.49
2023-03-20T12:04:27.336Z,15.51
2023-03-20T12:06:58.960Z,16.12
2023-03-20T12:09:46.552Z,14.75
2023-03-20T12:12:48.384Z,15.32
2023-03-20T12:15:41.495Z,15.36
2023-03-20T12:18:50.212Z,15.77
2023-03-20T12:21:48.332Z,15.32
2023-03-20T12:24:49.695Z,15.66
2023-03-20T12:27:49.033Z,15.47
2023-03-20T12:31:24.267Z,15.86
2023-03-20T12:34:01.259Z,16.10
2023-03-20T12:36:44.377Z,16.27
2023-03-20T12:39:35.314Z,16.47
2023-03-20T12:42:43.169Z,16.00
2023-03-20T12:45:23.681Z,15.61
2023-03-20T12:48:19.735Z,15.70
2023-03-20T12:51:52.495Z,15.76
2023-03-20T12:54:56.786Z,15.15
2023-03-20T12:57:45.576Z,15.52
2023-03-20T13:00:30.922Z,15.23
2023-03-20T13:03:47.518Z,15.53
2023-03-20T13:06:51.099Z,15.22
2023-03-20T13:09:52.874Z,15.22
2023-03-20T13:13:05.537Z,16.19
2023-03-20T13:15:55.636Z,16.09
2023-03-20T13:19:13.310Z,16.59
2023-03-20T13:21:46.696Z,16.19
2023-03-20T13:24:56.769Z,15.72
2023-03-20T13:28:20.614Z,16.92
2023-03-20T13:32:00.621Z,16.80
2023-03-20T13:35:25.721Z,17.17
2023-03-20T13:38:06.379Z,17.25
2023-03-20T13:40:46.239Z,17.05
2023-03-20T13:43:54.226Z,16.83
2023-03-20T13:46:46.711Z,16.87
2023-03-20T13:49:37.606Z,16.82
2023-03-20T13:52:40.548Z,15.12
2023-03-20T13:55:44.522Z,16.00
2023-03-20T13:58:59.015Z,16.46
2023-03-20T14:02:07.752Z,15.72
2023-03-20T14:04:35.622Z,15.62
2023-03-20T14:07:03.062Z,15.29
2023-03-20T14:09:37.266Z,15.10
2023-03-20T14:12:12.519Z,15.63
2023-03-20T14:15:01.005Z,15.83
2023-03-20T14:17:31.465Z,14.78
2023-03-20T14:20:24.382Z,15.38
2023-03-20T14:22:52.159Z,16.01
2023-03-20T14:25:23.833Z,14.99
2023-03-20T14:28:01.000Z,15.53
2023-03-20T14:30:31.266Z,15.23
2023-03-20T14:33:21.783Z,14.44
2023-03-20T14:36:26.378Z,14.67
2023-03-20T14:39:30.334Z,15.18
2023-03-20T14:42:37.314Z,14.86
2023-03-20T14:45:13.872Z,14.70
2023-03-20T14:48:23.525Z,15.22
2023-03-20T14:51:06.666Z,14.97
2023-03-20T14:53:34.220Z,14.47
2023-03-20T14:56:15.524Z,15.33
2023-03-20T14:58:55.996Z,15.90
2023-03-20T15:01:23.090Z,15.57
2023-03-20T15:03:59.113Z,16.08
2023-03-20T15:06:29.249Z,16.01
2023-03-20T15:09:10.731Z,15.90
2023-03-20T15:11:38.774Z,16.03
2023-03-20T15:14:08.755Z,16.01
2023-03-20T15:16:38.432Z,15.89
2023-03-20T15:19:22.053Z,15.70
2023-03-20T15:21:50.065Z,15.73
2023-03-20T15:24:30.477Z,15.56
2023-03-20T15:27:02.554Z,15.52
2023-03-20T15:29:32.557Z,15.51
2023-03-20T15:32:17.105Z,15.82
2023-03-20T15:34:47.520Z,15.67
2023-03-20T15:37:23.505Z,15.21
2023-03-20T15:39:56.231Z,15.65
2023-03-20T15:42:26.147Z,15.71
2023-03-20T15:44:56.383Z,15.75
2023-03-20T15:47:26.251Z,15.76
2023-03-20T15:50:00.707Z,15.57
2023-03-20T15:52:43.143Z,15.71
2023-03-20T15:55:20.081Z,15.87
2023-03-20T15:57:50.307Z,15.58
2023-03-20T16:00:35.238Z,15.94
2023-03-20T16:03:08.696Z,15.88
2023-03-20T16:05:36.490Z,15.85
2023-03-20T16:08:27.598Z,16.27
2023-03-20T16:11:14.818Z,16.27
2023-03-20T16:13:48.547Z,16.25
2023-03-20T16:16:24.639Z,16.15
2023-03-20T16:18:52.159Z,16.06
2023-03-20T16:21:27.765Z,16.31
2023-03-20T16:23:59.453Z,16.28
2023-03-20T16:26:27.929Z,16.35
2023-03-20T16:29:04.265Z,15.96
2023-03-20T16:31:42.290Z,15.73
2023-03-20T16:34:20.888Z,16.00
2023-03-20T16:36:58.269Z,15.88
2023-03-20T16:39:30.758Z,15.56
2023-03-20T16:42:08.384Z,15.43
2023-03-20T16:44:37.227Z,15.60
2023-03-20T16:47:33.108Z,15.69
2023-03-20T16:50:23.293Z,15.56
2023-03-20T16:52:58.793Z,15.21
2023-03-20T16:55:44.045Z,14.66
2023-03-20T16:58:27.779Z,15.15
2023-03-20T17:01:15.163Z,14.98
2023-03-20T17:04:11.616Z,14.55
2023-03-20T17:06:54.385Z,14.25
2023-03-20T17:09:31.437Z,14.48
2023-03-20T17:12:16.271Z,14.73
2023-03-20T17:14:45.571Z,14.98
2023-03-20T17:17:22.183Z,14.81
2023-03-20T17:19:50.406Z,14.95
2023-03-20T17:22:25.356Z,14.98
2023-03-20T17:24:53.206Z,14.41
2023-03-20T17:27:21.365Z,14.70
2023-03-20T17:29:49.753Z,14.70
2023-03-20T17:32:23.835Z,14.48
2023-03-20T17:34:51.612Z,14.58
2023-03-20T17:37:30.278Z,14.49
2023-03-20T17:39:58.244Z,14.63
2023-03-20T17:42:31.518Z,14.56
2023-03-20T17:45:03.450Z,14.74
2023-03-20T17:47:31.323Z,14.56
2023-03-20T17:49:58.847Z,14.46
2023-03-20T17:52:28.772Z,14.64
2023-03-20T17:54:56.472Z,14.69
2023-03-20T17:57:36.578Z,14.73
2023-03-20T18:00:13.308Z,14.58
2023-03-20T18:02:40.789Z,14.19
2023-03-20T18:05:08.987Z,14.60
2023-03-20T18:07:36.681Z,14.73
2023-03-20T18:10:40.615Z,14.67
2023-03-20T18:13:07.976Z,14.25
2023-03-20T18:15:35.388Z,14.55
2023-03-20T18:18:02.662Z,14.68
2023-03-20T18:20:33.484Z,14.68
2023-03-20T18:23:00.792Z,14.65
2023-03-20T18:25:28.458Z,14.69
2023-03-20T18:27:58.998Z,14.58
2023-03-20T18:30:35.120Z,14.50
2023-03-20T18:33:03.143Z,14.55
2023-03-20T18:35:30.771Z,14.34
2023-03-20T18:37:58.932Z,14.43
2023-03-20T18:40:37.205Z,14.37
2023-03-20T18:43:04.884Z,14.34
2023-03-20T18:45:32.729Z,14.26
2023-03-20T18:48:03.790Z,14.26
2023-03-20T18:50:38.491Z,14.17
2023-03-20T18:53:07.913Z,14.31
2023-03-20T18:55:36.760Z,14.31
2023-03-20T18:58:06.528Z,14.24
2023-03-20T19:00:40.639Z,14.15
2023-03-20T19:03:10.619Z,14.15
2023-03-20T19:05:38.386Z,14.02
2023-03-20T19:08:06.640Z,14.19
2023-03-20T19:10:43.813Z,14.13
2023-03-20T19:13:21.128Z,14.16
2023-03-20T19:15:48.417Z,14.18
2023-03-20T19:18:20.024Z,14.19
2023-03-20T19:20:55.695Z,14.01
2023-03-20T19:23:27.212Z,14.01
2023-03-20T19:25:55.239Z,14.05
2023-03-20T19:28:39.244Z,13.96
2023-03-20T19:31:09.231Z,13.88
2023-03-20T19:33:38.740Z,13.87
2023-03-20T19:36:08.855Z,13.80
2023-03-20T19:38:37.335Z,13.90
2023-03-20T19:41:04.783Z,13.85
2023-03-20T19:43:32.340Z,13.76
2023-03-20T19:46:00.208Z,13.73
2023-03-20T19:48:46.129Z,13.84
2023-03-20T19:51:25.521Z,13.81
2023-03-20T19:53:54.240Z,13.85
2023-03-20T19:56:23.560Z,13.23
2023-03-20T19:58:51.302Z,13.55
2023-03-20T20:01:23.859Z,13.73
2023-03-20T20:03:57.422Z,13.73
2023-03-20T20:06:31.238Z,13.74
2023-03-20T20:09:01.489Z,13.57
2023-03-20T20:11:29.201Z,13.69
2023-03-20T20:16:45.341Z,13.22
2023-03-20T20:19:12.926Z,13.46
2023-03-20T20:24:27.744Z,13.61
2023-03-20T20:27:15.261Z,13.36
2023-03-20T20:29:47.775Z,13.02
2023-03-20T20:32:16.170Z,13.23
2023-03-20T20:40:21.000Z,13.48
2023-03-20T20:42:51.547Z,13.36
2023-03-20T20:45:20.948Z,13.23
2023-03-20T20:47:49.264Z,13.44
2023-03-20T20:50:21.995Z,13.26
2023-03-20T20:52:50.115Z,13.44
2023-03-20T20:55:23.109Z,13.43
2023-03-20T20:57:55.415Z,13.28
2023-03-20T21:00:37.260Z,13.25
2023-03-20T21:03:08.716Z,12.91
2023-03-20T21:05:37.495Z,12.19
2023-03-20T21:08:04.771Z,12.91
2023-03-20T21:10:31.825Z,12.96
2023-03-20T21:12:59.981Z,12.98
2023-03-20T21:15:30.475Z,12.91
2023-03-20T21:18:01.421Z,12.87
2023-03-20T21:20:31.391Z,13.04
2023-03-20T21:22:58.908Z,13.22
2023-03-20T21:25:39.184Z,12.78
2023-03-20T21:28:09.746Z,13.13
2023-03-20T21:30:44.178Z,13.28
2023-03-20T21:33:18.095Z,13.41
2023-03-20T21:35:47.533Z,13.44
2023-03-20T21:41:11.581Z,12.90
2023-03-20T21:43:39.521Z,13.06
2023-03-20T21:46:42.328Z,13.22
2023-03-20T21:55:04.184Z,13.34
2023-03-20T22:02:58.928Z,13.46
2023-03-20T22:06:31.830Z,13.19
2023-03-20T22:09:13.872Z,13.24
2023-03-20T22:23:07.556Z,13.44
2023-03-20T22:28:36.700Z,13.43
2023-03-20T22:31:26.887Z,13.34
2023-03-20T22:37:23.155Z,13.34
2023-03-20T22:39:45.801Z,13.32
2023-03-20T22:42:35.262Z,13.27
2023-03-20T22:44:59.240Z,13.24
2023-03-20T22:47:26.662Z,13.22
2023-03-20T22:49:53.788Z,13.18
2023-03-20T22:52:31.674Z,13.09
2023-03-20T22:54:59.625Z,12.97
2023-03-20T22:57:40.220Z,13.13
2023-03-20T23:00:12.406Z,13.10
2023-03-20T23:02:39.639Z,13.17
2023-03-20T23:05:08.085Z,13.14
2023-03-20T23:07:37.160Z,13.13
2023-03-20T23:10:06.185Z,13.14
2023-03-20T23:12:33.402Z,13.01
2023-03-20T23:15:00.527Z,13.18
2023-03-20T23:17:27.648Z,13.13
2023-03-20T23:20:08.725Z,12.98
2023-03-20T23:22:38.544Z,13.02
2023-03-20T23:25:16.489Z,13.11
2023-03-20T23:27:51.316Z,13.07
2023-03-20T23:30:19.793Z,13.00
2023-03-20T23:32:47.024Z,12.76
2023-03-20T23:35:14.155Z,12.98
2023-03-20T23:37:41.371Z,13.02
2023-03-20T23:40:09.754Z,12.96
2023-03-20T23:42:36.922Z,12.96
2023-03-20T23:45:19.142Z,13.00
2023-03-20T23:47:48.199Z,12.99
2023-03-20T23:50:27.694Z,12.88
2023-03-20T23:53:13.215Z,12.97
2023-03-20T23:55:48.783Z,12.97
2023-03-20T23:58:16.834Z,13.07
